Time;durP1;ratioP1;P1;durP2;ratioP2;P2;SDS_P1;SDS_P2;PMS_P1;PMS_P2;Temp;Humidity;BMP_temperature;BMP_pressure;BME280_temperature;BME280_humidity;BME280_pressure;Samples;Min_cycle;Max_cycle;Signal;HPM_P1;HPM_P2
2023/02/09 00:01:46;;;;;;;46.70;27.27;;;0.20;99.90;;;;;;5032224;28;20518;-57
2023/02/09 00:04:14;;;;;;;49.53;28.37;;;0.20;99.90;;;;;;5033155;28;20471;-57
2023/02/09 00:06:44;;;;;;;46.43;26.60;;;0.20;99.90;;;;;;5032695;28;20463;-57
2023/02/09 00:09:12;;;;;;;45.47;26.87;;;0.20;99.90;;;;;;5032943;28;20459;-57
2023/02/09 00:14:26;;;;;;;44.63;25.03;;;0.10;99.90;;;;;;5032516;28;20467;-57
2023/02/09 00:16:54;;;;;;;47.07;26.93;;;0.10;99.90;;;;;;5032352;28;20528;-57
2023/02/09 00:19:22;;;;;;;46.23;27.57;;;0.10;99.90;;;;;;5032712;28;20463;-57
2023/02/09 00:21:52;;;;;;;49.03;27.23;;;0.10;99.90;;;;;;5032885;28;21001;-57
2023/02/09 00:24:20;;;;;;;48.33;27.03;;;0.10;99.90;;;;;;5031796;28;20464;-57
2023/02/09 00:26:48;;;;;;;46.77;26.00;;;0.10;99.90;;;;;;5032472;28;20482;-57
2023/02/09 00:29:21;;;;;;;46.50;27.50;;;0.10;99.90;;;;;;5033728;28;20455;-57
2023/02/09 00:31:50;;;;;;;47.90;26.40;;;0.00;99.90;;;;;;5036241;28;20483;-57
2023/02/09 00:34:18;;;;;;;46.43;27.20;;;0.00;99.90;;;;;;5035332;28;20562;-57
2023/02/09 00:36:48;;;;;;;44.27;25.67;;;0.00;99.90;;;;;;5035101;28;20471;-57
2023/02/09 00:39:17;;;;;;;49.27;26.53;;;-0.10;99.90;;;;;;5036421;28;20511;-58
2023/02/09 00:44:31;;;;;;;45.23;25.87;;;0.00;99.90;;;;;;5034610;28;20483;-58
2023/02/09 00:46:59;;;;;;;47.03;26.47;;;0.00;99.90;;;;;;5036032;28;20478;-57
2023/02/09 00:49:27;;;;;;;46.60;27.40;;;-0.10;99.90;;;;;;5035947;28;20471;-58
2023/02/09 00:51:55;;;;;;;42.07;24.43;;;0.00;99.90;;;;;;5035388;28;20885;-57
2023/02/09 00:54:25;;;;;;;43.13;26.37;;;0.00;99.90;;;;;;5036273;28;20451;-58
2023/02/09 00:56:53;;;;;;;45.83;26.13;;;0.00;99.90;;;;;;5036154;28;20456;-58
2023/02/09 00:59:21;;;;;;;46.47;26.77;;;0.00;99.90;;;;;;5034824;28;20474;-58
2023/02/09 01:01:49;;;;;;;46.87;27.50;;;0.00;99.90;;;;;;5034137;28;20476;-57
2023/02/09 01:04:17;;;;;;;41.17;24.97;;;0.00;99.90;;;;;;5034992;28;21029;-58
2023/02/09 01:06:47;;;;;;;48.23;27.07;;;0.00;99.90;;;;;;5034653;28;20468;-58
2023/02/09 01:09:16;;;;;;;47.73;27.83;;;0.00;99.90;;;;;;5036078;28;20455;-58
2023/02/09 01:11:46;;;;;;;43.47;25.07;;;0.00;99.90;;;;;;5034505;28;20497;-58
2023/02/09 01:14:14;;;;;;;47.50;25.63;;;0.00;99.90;;;;;;5035832;28;20478;-58
2023/02/09 01:16:42;;;;;;;46.83;26.47;;;-0.10;99.90;;;;;;5035161;28;20467;-57
2023/02/09 01:19:13;;;;;;;45.47;25.83;;;-0.10;99.90;;;;;;5034175;28;20503;-58
2023/02/09 01:21:41;;;;;;;48.77;27.10;;;-0.10;99.90;;;;;;5034315;28;20815;-57
2023/02/09 01:24:13;;;;;;;42.30;25.87;;;-0.10;99.90;;;;;;5035678;28;20800;-58
2023/02/09 01:26:42;;;;;;;43.20;24.60;;;-0.10;99.90;;;;;;5035456;28;20462;-58
2023/02/09 01:29:14;;;;;;;42.33;25.53;;;0.00;99.90;;;;;;5035776;28;20463;-58
2023/02/09 01:31:43;;;;;;;38.30;23.37;;;0.00;99.90;;;;;;5033663;28;20483;-58
2023/02/09 01:34:13;;;;;;;42.20;23.83;;;0.00;99.90;;;;;;5034276;28;20467;-58
2023/02/09 01:36:41;;;;;;;43.97;25.07;;;0.00;99.90;;;;;;5035352;28;20469;-57
2023/02/09 01:39:11;;;;;;;37.33;21.17;;;0.00;99.90;;;;;;5033662;28;20467;-58
2023/02/09 01:41:41;;;;;;;41.97;24.77;;;-0.10;99.90;;;;;;5012941;28;20810;-57
2023/02/09 01:44:43;;;;;;;41.10;23.80;;;-0.10;99.90;;;;;;5018818;28;20471;-57
2023/02/09 01:47:15;;;;;;;42.53;24.10;;;-0.20;99.90;;;;;;5026495;28;20455;-58
2023/02/09 01:49:45;;;;;;;42.00;24.40;;;-0.20;99.90;;;;;;5030197;28;20476;-58
2023/02/09 01:52:20;;;;;;;41.37;23.90;;;-0.20;99.90;;;;;;5035377;28;20983;-58
2023/02/09 01:54:52;;;;;;;42.53;25.07;;;-0.20;99.90;;;;;;5033863;28;20459;-57
2023/02/09 01:57:24;;;;;;;37.83;22.90;;;-0.20;99.90;;;;;;5035382;28;20834;-57
2023/02/09 01:59:56;;;;;;;40.50;23.00;;;-0.20;99.90;;;;;;5018932;28;20582;-57
2023/02/09 02:02:26;;;;;;;38.10;23.47;;;-0.30;99.90;;;;;;5014629;28;20481;-58
2023/02/09 02:04:54;;;;;;;36.07;21.47;;;-0.30;99.90;;;;;;5015386;28;20468;-57
2023/02/09 02:07:27;;;;;;;41.47;23.33;;;-0.20;99.90;;;;;;5015165;28;20452;-58
2023/02/09 02:09:56;;;;;;;41.40;23.77;;;-0.20;99.90;;;;;;5013874;28;20476;-58
2023/02/09 02:12:25;;;;;;;38.97;22.50;;;-0.30;99.90;;;;;;5013527;28;21010;-58
2023/02/09 02:14:53;;;;;;;40.90;24.17;;;-0.20;99.90;;;;;;5031084;28;20470;-58
2023/02/09 02:17:31;;;;;;;43.73;24.00;;;-0.30;99.90;;;;;;5032022;28;20472;-58
2023/02/09 02:20:37;;;;;;;41.23;23.80;;;-0.30;99.90;;;;;;5033183;28;20900;-58
2023/02/09 02:23:12;;;;;;;40.40;22.97;;;-0.30;99.90;;;;;;4999535;28;20490;-58
2023/02/09 02:26:16;;;;;;;39.93;23.33;;;-0.30;99.90;;;;;;5033082;28;20547;-58
2023/02/09 02:29:30;;;;;;;41.83;23.17;;;-0.30;99.90;;;;;;5033038;28;20537;-57
2023/02/09 02:32:09;;;;;;;39.20;23.33;;;-0.40;99.90;;;;;;4998860;28;20483;-57
2023/02/09 02:34:45;;;;;;;39.60;21.97;;;-0.20;99.90;;;;;;5034194;28;20473;-58
2023/02/09 02:37:27;;;;;;;36.10;21.87;;;-0.30;99.90;;;;;;5034329;28;20859;-58
2023/02/09 02:40:07;;;;;;;43.03;23.13;;;-0.20;99.90;;;;;;5024131;28;20806;-57
2023/02/09 02:42:51;;;;;;;41.47;23.50;;;-0.30;99.90;;;;;;5014241;28;20479;-57
2023/02/09 02:45:33;;;;;;;40.80;23.57;;;-0.40;99.90;;;;;;5033902;28;20471;-58
2023/02/09 02:48:13;;;;;;;39.13;23.40;;;-0.30;99.90;;;;;;5033424;28;20475;-58
2023/02/09 02:50:46;;;;;;;39.87;23.00;;;-0.30;99.90;;;;;;5034049;28;20577;-58
2023/02/09 02:53:17;;;;;;;37.90;22.63;;;-0.30;99.90;;;;;;5033627;28;20490;-58
2023/02/09 02:55:47;;;;;;;38.50;22.60;;;-0.40;99.90;;;;;;5014332;28;20888;-57
2023/02/09 02:58:19;;;;;;;44.57;23.83;;;-0.40;99.90;;;;;;5014395;28;20876;-58
2023/02/09 03:00:50;;;;;;;38.47;22.17;;;-0.40;99.90;;;;;;5013916;28;20479;-58
2023/02/09 03:03:24;;;;;;;39.10;23.10;;;-0.40;99.90;;;;;;5033546;28;20455;-57
2023/02/09 03:05:53;;;;;;;37.13;22.10;;;-0.40;99.90;;;;;;5033567;28;20482;-57
2023/02/09 03:08:21;;;;;;;38.03;21.67;;;-0.40;99.90;;;;;;5033099;28;20985;-57
2023/02/09 03:10:49;;;;;;;39.03;21.67;;;-0.40;99.90;;;;;;5025894;28;20484;-57
2023/02/09 03:13:37;;;;;;;36.90;22.17;;;-0.40;99.90;;;;;;5016555;28;20490;-57
2023/02/09 03:16:17;;;;;;;35.87;21.50;;;-0.40;99.90;;;;;;5033271;28;20482;-57
2023/02/09 03:19:01;;;;;;;36.40;22.10;;;-0.20;99.90;;;;;;5032064;28;20466;-57
2023/02/09 03:21:39;;;;;;;38.10;21.50;;;-0.40;99.90;;;;;;5033325;28;20553;-57
2023/02/09 03:24:13;;;;;;;37.23;21.50;;;-0.40;99.90;;;;;;5033572;28;20479;-58
2023/02/09 03:26:45;;;;;;;33.50;21.10;;;-0.40;99.90;;;;;;5033559;28;20478;-58
2023/02/09 03:29:15;;;;;;;35.23;19.63;;;-0.40;99.90;;;;;;5032864;28;20827;-57
2023/02/09 03:31:44;;;;;;;35.93;19.60;;;-0.30;99.90;;;;;;5032664;28;20843;-58
2023/02/09 03:34:15;;;;;;;34.63;19.77;;;-0.40;99.90;;;;;;5033110;28;20537;-57
2023/02/09 03:36:45;;;;;;;32.70;20.03;;;-0.50;99.90;;;;;;5033312;28;20958;-58
2023/02/09 03:39:13;;;;;;;33.07;19.30;;;-0.40;99.90;;;;;;5016359;28;20998;-57
2023/02/09 03:41:41;;;;;;;33.13;19.30;;;-0.40;99.90;;;;;;5013424;28;20877;-58
2023/02/09 03:44:27;;;;;;;34.27;20.97;;;-0.50;99.90;;;;;;5016569;28;20482;-58
2023/02/09 03:46:57;;;;;;;32.37;19.17;;;-0.50;99.90;;;;;;5032800;28;20565;-58
2023/02/09 03:49:30;;;;;;;34.70;19.43;;;-0.40;99.90;;;;;;5027994;28;20491;-58
2023/02/09 03:51:59;;;;;;;31.77;18.40;;;-0.40;99.90;;;;;;5032884;28;20482;-57
2023/02/09 03:54:28;;;;;;;31.13;19.17;;;-0.40;99.90;;;;;;5033004;28;20545;-57
2023/02/09 03:56:56;;;;;;;32.50;18.80;;;-0.40;99.90;;;;;;5033225;28;20474;-57
2023/02/09 03:59:25;;;;;;;34.00;19.13;;;-0.40;99.90;;;;;;5032493;28;20792;-58
2023/02/09 04:01:54;;;;;;;30.37;18.00;;;-0.40;99.90;;;;;;5032367;28;20486;-57
2023/02/09 04:04:22;;;;;;;32.87;18.87;;;-0.40;99.90;;;;;;5032121;28;20464;-58
2023/02/09 04:06:52;;;;;;;32.30;18.17;;;-0.50;99.90;;;;;;5033001;28;20511;-58
2023/02/09 04:09:20;;;;;;;30.93;18.10;;;-0.50;99.90;;;;;;5015291;28;20457;-57
2023/02/09 04:11:49;;;;;;;28.00;17.23;;;-0.50;99.90;;;;;;5012891;28;20475;-58
2023/02/09 04:14:17;;;;;;;28.83;18.10;;;-0.40;99.90;;;;;;5023677;28;20491;-56
2023/02/09 04:16:45;;;;;;;26.83;17.13;;;-0.40;99.90;;;;;;5032042;28;20464;-57
2023/02/09 04:19:13;;;;;;;26.87;17.20;;;-0.50;99.90;;;;;;5032016;28;20471;-57
2023/02/09 04:21:42;;;;;;;28.13;17.30;;;-0.50;99.90;;;;;;5032766;28;20970;-58
2023/02/09 04:24:11;;;;;;;27.30;16.83;;;-0.50;99.90;;;;;;5032485;28;20471;-57
2023/02/09 04:26:39;;;;;;;28.27;16.87;;;-0.50;99.90;;;;;;5032624;28;20839;-57
2023/02/09 04:29:07;;;;;;;27.20;17.00;;;-0.50;99.90;;;;;;5024604;28;20475;-57
2023/02/09 04:31:35;;;;;;;28.47;16.33;;;-0.50;99.90;;;;;;5031994;28;20482;-58
2023/02/09 04:34:04;;;;;;;28.07;16.80;;;-0.50;99.90;;;;;;5032723;28;20495;-58
2023/02/09 04:36:32;;;;;;;33.27;18.37;;;-0.50;99.90;;;;;;5032254;28;20470;-57
2023/02/09 04:39:00;;;;;;;28.07;16.63;;;-0.60;99.90;;;;;;5032154;28;20467;-58
2023/02/09 04:41:29;;;;;;;30.03;17.40;;;-0.60;99.90;;;;;;5032389;28;20967;-57
2023/02/09 04:43:57;;;;;;;29.50;16.47;;;-0.50;99.90;;;;;;5032208;28;20522;-57
2023/02/09 04:46:25;;;;;;;30.03;17.40;;;-0.50;99.90;;;;;;5032028;28;20475;-57
2023/02/09 04:48:54;;;;;;;28.53;16.00;;;-0.50;99.90;;;;;;5030930;28;20482;-57
2023/02/09 04:51:22;;;;;;;27.80;15.63;;;-0.50;99.90;;;;;;5020351;28;20455;-57
2023/02/09 04:53:50;;;;;;;26.63;15.97;;;-0.50;99.90;;;;;;5021246;28;20840;-57
2023/02/09 04:56:18;;;;;;;28.60;16.97;;;-0.50;99.90;;;;;;5022244;28;20831;-57
2023/02/09 05:01:33;;;;;;;27.20;16.47;;;-0.40;99.90;;;;;;5020648;28;20486;-57
2023/02/09 05:04:01;;;;;;;26.93;16.37;;;-0.50;99.90;;;;;;5021828;28;20974;-58
2023/02/09 05:06:29;;;;;;;24.93;16.07;;;-0.50;99.90;;;;;;5020936;28;20467;-57
2023/02/09 05:08:57;;;;;;;26.00;16.10;;;-0.50;99.90;;;;;;5021246;28;20468;-57
2023/02/09 05:11:25;;;;;;;27.97;16.43;;;-0.50;99.90;;;;;;5020972;28;20966;-56
2023/02/09 05:13:55;;;;;;;27.23;15.33;;;-0.50;99.90;;;;;;5020199;28;20487;-57
2023/02/09 05:16:23;;;;;;;27.33;15.83;;;-0.50;99.90;;;;;;5033802;28;20470;-57
2023/02/09 05:18:52;;;;;;;26.43;15.00;;;-0.50;99.90;;;;;;5035408;28;20558;-57
2023/02/09 05:21:19;;;;;;;28.30;15.70;;;-0.40;99.90;;;;;;5035979;28;20471;-57
2023/02/09 05:23:48;;;;;;;24.87;14.97;;;-0.50;99.90;;;;;;5035568;28;20479;-58
2023/02/09 05:26:16;;;;;;;23.23;14.37;;;-0.50;99.90;;;;;;5035193;28;20467;-58
2023/02/09 05:28:44;;;;;;;24.67;14.47;;;-0.50;99.90;;;;;;5026626;28;20476;-57
2023/02/09 05:31:13;;;;;;;24.60;15.33;;;-0.50;99.90;;;;;;5024088;28;20482;-58
2023/02/09 05:33:41;;;;;;;22.13;14.37;;;-0.40;99.90;;;;;;5033348;28;20569;-57
2023/02/09 05:36:11;;;;;;;24.47;14.27;;;-0.40;99.90;;;;;;5032037;28;20835;-57
2023/02/09 05:38:40;;;;;;;19.27;12.57;;;-0.40;99.90;;;;;;5032103;28;21024;-56
2023/02/09 05:41:10;;;;;;;21.37;12.73;;;-0.40;99.90;;;;;;5015616;28;20952;-57
2023/02/09 05:43:38;;;;;;;21.50;13.03;;;-0.50;99.90;;;;;;5019269;28;20486;-57
2023/02/09 05:46:06;;;;;;;22.37;12.57;;;-0.40;99.90;;;;;;5034221;28;20465;-57
2023/02/09 05:48:36;;;;;;;22.33;13.27;;;-0.40;99.90;;;;;;5034527;28;20891;-57
2023/02/09 05:51:05;;;;;;;21.37;12.83;;;-0.40;99.90;;;;;;5035420;28;20475;-57
2023/02/09 05:53:33;;;;;;;20.30;12.80;;;-0.40;99.90;;;;;;5034973;28;20981;-57
2023/02/09 05:56:01;;;;;;;20.43;12.20;;;-0.40;99.90;;;;;;5025464;28;20460;-57
2023/02/09 05:58:29;;;;;;;21.10;12.33;;;-0.30;99.90;;;;;;5026368;28;20475;-57
2023/02/09 06:00:57;;;;;;;19.83;12.50;;;-0.30;99.90;;;;;;5022570;28;20475;-57
2023/02/09 06:03:25;;;;;;;18.13;11.30;;;-0.30;99.90;;;;;;5028934;28;21045;-57
2023/02/09 06:05:54;;;;;;;19.40;12.10;;;-0.20;99.90;;;;;;5022342;28;20468;-57
2023/02/09 06:08:23;;;;;;;21.47;12.27;;;-0.30;99.90;;;;;;5015434;28;20477;-57
2023/02/09 06:10:51;;;;;;;18.97;11.30;;;-0.30;99.90;;;;;;5014977;28;20507;-58
2023/02/09 06:13:19;;;;;;;18.47;11.53;;;-0.20;99.90;;;;;;5019105;28;20472;-57
2023/02/09 06:15:47;;;;;;;17.57;11.40;;;-0.20;99.90;;;;;;5027297;28;20510;-58
2023/02/09 06:18:15;;;;;;;18.57;11.07;;;-0.30;99.90;;;;;;5021638;28;20475;-57
2023/02/09 06:20:43;;;;;;;18.93;11.30;;;-0.30;99.90;;;;;;5021585;28;20480;-57
2023/02/09 06:23:13;;;;;;;18.97;11.13;;;-0.30;99.90;;;;;;5026898;28;20867;-57
2023/02/09 06:25:41;;;;;;;17.80;10.60;;;-0.30;99.90;;;;;;5034698;28;20463;-57
2023/02/09 06:28:09;;;;;;;17.90;10.77;;;-0.20;99.90;;;;;;5033752;28;20517;-58
2023/02/09 06:30:37;;;;;;;18.57;11.40;;;-0.20;99.90;;;;;;5023702;28;20983;-58
2023/02/09 06:33:05;;;;;;;18.53;10.87;;;-0.20;99.90;;;;;;5026226;28;20496;-58
2023/02/09 06:35:33;;;;;;;19.10;11.27;;;-0.20;99.90;;;;;;5018100;28;20484;-57
2023/02/09 06:38:01;;;;;;;20.73;11.03;;;-0.20;99.90;;;;;;5027037;28;20978;-57
2023/02/09 06:40:31;;;;;;;16.10;10.33;;;-0.20;99.90;;;;;;5025625;28;20486;-57
2023/02/09 06:42:59;;;;;;;16.27;10.03;;;-0.20;99.90;;;;;;5030792;28;20482;-58
2023/02/09 06:45:27;;;;;;;16.50;10.23;;;-0.20;99.90;;;;;;5038157;28;20971;-57
2023/02/09 06:47:55;;;;;;;15.97;10.20;;;-0.20;99.90;;;;;;5035753;28;20477;-58
2023/02/09 06:50:23;;;;;;;17.60;11.07;;;-0.10;99.90;;;;;;5040953;28;20474;-57
2023/02/09 06:52:52;;;;;;;17.80;10.50;;;-0.20;99.90;;;;;;5025411;28;20530;-57
2023/02/09 06:55:20;;;;;;;18.70;10.80;;;-0.20;99.90;;;;;;5036523;28;20573;-57
2023/02/09 06:57:49;;;;;;;15.37;10.70;;;-0.20;99.90;;;;;;5037260;28;20466;-58
2023/02/09 07:00:18;;;;;;;16.90;9.97;;;-0.20;99.90;;;;;;5028939;28;20471;-57
2023/02/09 07:02:46;;;;;;;16.90;9.77;;;-0.20;99.90;;;;;;5039060;28;20475;-57
2023/02/09 07:05:16;;;;;;;16.30;10.37;;;-0.20;99.90;;;;;;5040120;28;20483;-57
2023/02/09 07:07:44;;;;;;;15.57;10.27;;;-0.20;99.90;;;;;;5035369;28;20471;-57
2023/02/09 07:10:14;;;;;;;17.50;10.53;;;-0.20;99.90;;;;;;5039446;28;20473;-58
2023/02/09 07:12:43;;;;;;;15.87;9.67;;;-0.20;99.90;;;;;;5032731;28;20472;-57
2023/02/09 07:15:13;;;;;;;17.17;10.73;;;-0.20;99.90;;;;;;5022950;28;20999;-58
2023/02/09 07:17:42;;;;;;;16.27;10.13;;;-0.20;99.90;;;;;;5030464;28;20472;-58
2023/02/09 07:20:11;;;;;;;17.53;10.70;;;-0.20;99.90;;;;;;5033119;28;20817;-58
2023/02/09 07:22:39;;;;;;;15.80;9.63;;;-0.20;99.90;;;;;;5032737;28;20504;-58
2023/02/09 07:25:08;;;;;;;18.13;11.43;;;-0.20;99.90;;;;;;5033427;28;20959;-59
2023/02/09 07:27:36;;;;;;;17.73;11.07;;;-0.20;99.90;;;;;;5034451;28;20543;-58
2023/02/09 07:30:05;;;;;;;16.67;11.00;;;-0.10;99.90;;;;;;5034483;28;20471;-58
2023/02/09 07:32:36;;;;;;;17.27;10.27;;;-0.10;99.90;;;;;;5020618;28;20485;-58
2023/02/09 07:35:05;;;;;;;18.33;10.03;;;0.00;99.90;;;;;;5032905;28;20499;-58
2023/02/09 07:37:35;;;;;;;18.40;10.23;;;0.00;99.90;;;;;;5029934;28;20989;-58
2023/02/09 07:40:03;;;;;;;15.90;10.10;;;-0.10;99.90;;;;;;5032090;28;20502;-58
2023/02/09 07:42:31;;;;;;;16.83;10.00;;;0.00;99.90;;;;;;5035326;28;20959;-58
2023/02/09 07:45:02;;;;;;;14.63;9.77;;;0.00;99.90;;;;;;5024166;28;20509;-58
2023/02/09 07:47:30;;;;;;;17.30;10.70;;;0.00;99.90;;;;;;5032604;28;21000;-58
2023/02/09 07:49:59;;;;;;;15.53;10.53;;;0.00;99.90;;;;;;5030987;28;20470;-58
2023/02/09 07:52:27;;;;;;;15.30;9.57;;;0.10;99.90;;;;;;5040813;28;20557;-58
2023/02/09 07:54:55;;;;;;;14.87;9.87;;;0.20;99.90;;;;;;5036598;28;20491;-58
2023/02/09 07:57:23;;;;;;;16.57;9.60;;;0.20;99.90;;;;;;5022910;28;20476;-58
2023/02/09 07:59:51;;;;;;;17.07;10.70;;;0.20;99.90;;;;;;5039608;28;20472;-58
2023/02/09 08:02:28;;;;;;;15.23;9.33;;;0.20;99.90;;;;;;5027818;28;21032;-58
2023/02/09 08:05:00;;;;;;;14.40;9.73;;;0.20;99.90;;;;;;5020147;28;20467;-58
2023/02/09 08:07:28;;;;;;;15.50;10.30;;;0.20;99.90;;;;;;5037237;28;20459;-58
2023/02/09 08:09:57;;;;;;;14.90;9.60;;;0.40;99.90;;;;;;5030882;28;20978;-58
2023/02/09 08:15:10;;;;;;;16.93;10.10;;;0.40;99.90;;;;;;5036372;28;20507;-58
2023/02/09 08:17:38;;;;;;;13.10;9.33;;;0.50;99.90;;;;;;5034859;28;20468;-58
2023/02/09 08:20:11;;;;;;;13.93;9.17;;;0.50;99.90;;;;;;5026888;28;20459;-58
2023/02/09 08:22:42;;;;;;;18.27;10.03;;;0.60;99.90;;;;;;5033359;28;20757;-58
2023/02/09 08:25:10;;;;;;;16.53;10.70;;;0.70;99.90;;;;;;5034241;28;20466;-58
2023/02/09 08:27:41;;;;;;;14.47;10.20;;;0.70;99.90;;;;;;5040631;28;20463;-58
2023/02/09 08:30:11;;;;;;;19.03;11.50;;;0.90;99.90;;;;;;5025570;28;20463;-58
2023/02/09 08:32:39;;;;;;;17.83;10.43;;;1.00;99.90;;;;;;5056150;28;20470;-58
2023/02/09 08:35:09;;;;;;;16.27;9.73;;;1.00;99.90;;;;;;5054119;28;20529;-59
2023/02/09 08:37:37;;;;;;;17.50;10.57;;;1.20;99.90;;;;;;5054547;28;20967;-58
2023/02/09 08:40:06;;;;;;;14.63;9.47;;;1.30;99.90;;;;;;5058197;28;20481;-58
2023/02/09 08:42:34;;;;;;;13.10;8.67;;;1.30;99.90;;;;;;5053269;28;20489;-58
2023/02/09 08:45:02;;;;;;;15.33;9.30;;;1.30;99.90;;;;;;5056768;28;20480;-58
2023/02/09 08:47:30;;;;;;;14.13;9.60;;;1.40;99.90;;;;;;5056234;28;20527;-58
2023/02/09 08:49:58;;;;;;;12.73;9.10;;;1.40;99.90;;;;;;5058257;28;20462;-59
2023/02/09 08:52:27;;;;;;;15.30;9.83;;;1.50;99.90;;;;;;5064982;28;20473;-58
2023/02/09 08:54:55;;;;;;;15.23;10.20;;;1.70;99.90;;;;;;5054585;28;20539;-59
2023/02/09 08:57:24;;;;;;;15.13;9.50;;;1.80;99.90;;;;;;5058832;28;20491;-58
2023/02/09 09:00:11;;;;;;;15.93;10.27;;;2.00;99.90;;;;;;5055973;28;20480;-58
2023/02/09 09:02:39;;;;;;;13.23;8.20;;;2.00;99.90;;;;;;5035147;28;20831;-58
2023/02/09 09:05:07;;;;;;;15.47;9.57;;;2.10;99.90;;;;;;5036063;28;20475;-58
2023/02/09 09:07:37;;;;;;;13.93;9.30;;;2.00;99.90;;;;;;5037712;28;20460;-58
2023/02/09 09:10:07;;;;;;;12.33;9.27;;;2.10;99.90;;;;;;5035711;28;20991;-58
2023/02/09 09:12:36;;;;;;;16.10;9.63;;;2.40;99.90;;;;;;5036916;28;20507;-58
2023/02/09 09:15:04;;;;;;;15.37;9.03;;;2.40;99.90;;;;;;5035692;28;20468;-58
2023/02/09 09:17:32;;;;;;;16.87;10.73;;;2.40;99.90;;;;;;5040110;28;20970;-58
2023/02/09 09:20:00;;;;;;;14.30;9.93;;;2.40;99.90;;;;;;5045804;28;20481;-58
2023/02/09 09:22:29;;;;;;;12.73;8.90;;;2.40;99.90;;;;;;5038354;28;20472;-58
2023/02/09 09:24:58;;;;;;;14.47;9.50;;;2.50;99.90;;;;;;5036761;28;20472;-58
2023/02/09 09:27:27;;;;;;;13.50;9.17;;;2.50;99.90;;;;;;5042712;28;20475;-59
2023/02/09 09:29:55;;;;;;;14.73;9.47;;;2.70;99.90;;;;;;5038922;28;21012;-58
2023/02/09 09:32:23;;;;;;;13.10;9.37;;;2.70;99.90;;;;;;5045208;28;20478;-58
2023/02/09 09:34:53;;;;;;;14.07;9.30;;;2.80;99.90;;;;;;5055135;28;20474;-58
2023/02/09 09:37:22;;;;;;;16.00;10.17;;;2.80;99.90;;;;;;5053567;28;20512;-58
2023/02/09 09:39:51;;;;;;;17.93;10.90;;;2.70;99.90;;;;;;5047269;28;20475;-57
2023/02/09 09:42:24;;;;;;;15.60;9.57;;;2.80;99.90;;;;;;5038163;28;20479;-58
2023/02/09 09:44:53;;;;;;;14.60;9.97;;;2.90;99.90;;;;;;5034027;28;20472;-58
2023/02/09 09:47:32;;;;;;;13.40;9.13;;;3.00;99.90;;;;;;5054193;28;20467;-58
2023/02/09 09:50:00;;;;;;;13.93;9.77;;;3.10;99.90;;;;;;5032006;28;20464;-59
2023/02/09 09:52:32;;;;;;;17.73;10.50;;;3.20;99.90;;;;;;5034988;28;20473;-58
2023/02/09 09:55:01;;;;;;;14.20;9.40;;;3.30;99.90;;;;;;5042260;28;20480;-58
2023/02/09 09:57:32;;;;;;;15.70;9.33;;;3.30;99.90;;;;;;5045702;28;20495;-58
2023/02/09 10:00:03;;;;;;;12.63;9.10;;;3.30;99.90;;;;;;5048545;28;20476;-58
2023/02/09 10:02:33;;;;;;;16.17;9.97;;;3.30;99.90;;;;;;5026582;28;20517;-58
2023/02/09 10:05:21;;;;;;;14.70;9.00;;;3.30;99.90;;;;;;5037561;28;20474;-58
2023/02/09 10:07:56;;;;;;;15.23;8.93;;;3.30;99.90;;;;;;5032239;28;20487;-58
2023/02/09 10:10:36;;;;;;;16.50;9.67;;;3.40;99.90;;;;;;5029898;28;20475;-58
2023/02/09 10:13:15;;;;;;;12.37;9.03;;;3.50;99.90;;;;;;5034481;28;20491;-58
2023/02/09 10:15:50;;;;;;;15.03;9.00;;;3.60;99.90;;;;;;5037150;28;20479;-59
2023/02/09 10:18:23;;;;;;;15.27;10.00;;;3.60;99.90;;;;;;5036867;28;20471;-58
2023/02/09 10:20:53;;;;;;;14.50;9.87;;;3.70;99.90;;;;;;5031965;28;20555;-58
2023/02/09 10:23:25;;;;;;;13.87;9.40;;;3.80;99.90;;;;;;5037247;28;20474;-58
2023/02/09 10:25:59;;;;;;;14.90;8.87;;;3.80;99.90;;;;;;5038645;28;20479;-57
2023/02/09 10:28:31;;;;;;;14.00;9.60;;;3.90;99.90;;;;;;5032630;28;20488;-59
2023/02/09 10:31:03;;;;;;;15.10;9.93;;;4.00;99.90;;;;;;5031408;28;20487;-59
2023/02/09 10:33:41;;;;;;;13.47;9.40;;;3.90;99.90;;;;;;5044527;28;20468;-58
2023/02/09 10:36:24;;;;;;;15.37;9.63;;;3.90;99.90;;;;;;5021650;28;20834;-58
2023/02/09 10:39:02;;;;;;;13.97;9.87;;;4.00;99.90;;;;;;5028851;28;20476;-59
2023/02/09 10:41:32;;;;;;;14.87;10.03;;;4.10;99.90;;;;;;5036969;28;20878;-58
2023/02/09 10:44:06;;;;;;;14.23;9.97;;;4.00;99.90;;;;;;5030708;28;20479;-58
2023/02/09 10:46:34;;;;;;;14.27;9.50;;;4.00;99.90;;;;;;5020564;28;20457;-59
2023/02/09 10:49:02;;;;;;;15.47;9.50;;;4.10;99.90;;;;;;5037350;28;20474;-58
2023/02/09 10:51:32;;;;;;;13.70;10.00;;;4.20;99.90;;;;;;5028381;28;20554;-58
2023/02/09 10:54:05;;;;;;;13.87;9.07;;;4.40;99.90;;;;;;5033187;28;20570;-58
2023/02/09 10:56:42;;;;;;;15.27;9.70;;;4.50;99.90;;;;;;5028038;28;21025;-58
2023/02/09 10:59:18;;;;;;;14.80;10.00;;;4.60;99.90;;;;;;5036108;28;20469;-59
2023/02/09 11:01:54;;;;;;;13.30;9.07;;;4.60;99.90;;;;;;5040708;28;21011;-58
2023/02/09 11:04:25;;;;;;;13.60;9.20;;;4.50;99.90;;;;;;5037030;28;20995;-58
2023/02/09 11:06:55;;;;;;;12.63;9.30;;;4.40;99.90;;;;;;5024912;28;20453;-58
2023/02/09 11:09:28;;;;;;;12.77;9.63;;;4.40;99.90;;;;;;5036854;28;20800;-58
2023/02/09 11:11:56;;;;;;;13.97;9.00;;;4.40;99.90;;;;;;5028920;28;20471;-58
2023/02/09 11:14:26;;;;;;;14.93;10.00;;;4.30;99.90;;;;;;5029781;28;20986;-58
2023/02/09 11:17:00;;;;;;;14.50;9.90;;;4.40;99.90;;;;;;5033916;28;20499;-58
2023/02/09 11:20:00;;;;;;;15.40;9.90;;;4.50;99.90;;;;;;5017008;28;20891;-58
2023/02/09 11:22:50;;;;;;;14.70;9.73;;;4.50;99.90;;;;;;5024227;28;20485;-59
2023/02/09 11:25:24;;;;;;;14.70;10.03;;;4.70;99.90;;;;;;5029221;28;20467;-58
2023/02/09 11:28:18;;;;;;;14.30;9.90;;;4.90;99.90;;;;;;5028517;28;20464;-58
2023/02/09 11:31:13;;;;;;;15.83;10.13;;;4.80;99.90;;;;;;5022403;28;20478;-58
2023/02/09 11:33:51;;;;;;;15.03;10.47;;;4.80;99.90;;;;;;5028457;28;21009;-58
2023/02/09 11:36:34;;;;;;;13.33;9.00;;;4.80;99.90;;;;;;5034937;28;20465;-58
2023/02/09 11:39:09;;;;;;;16.30;9.77;;;4.90;99.90;;;;;;5025632;28;20467;-59
2023/02/09 11:44:34;;;;;;;15.33;9.77;;;4.90;99.90;;;;;;5020727;28;20474;-58
2023/02/09 11:47:06;;;;;;;16.57;9.60;;;4.90;99.90;;;;;;5031866;28;20998;-58
2023/02/09 11:49:43;;;;;;;14.97;10.17;;;4.80;99.90;;;;;;5032605;28;20474;-58
2023/02/09 11:52:23;;;;;;;15.13;9.53;;;4.90;99.90;;;;;;5029710;28;20796;-58
2023/02/09 11:54:56;;;;;;;13.27;9.27;;;4.90;99.90;;;;;;5072959;28;20468;-58
2023/02/09 11:57:34;;;;;;;13.43;9.60;;;5.00;99.90;;;;;;5072598;28;20475;-59
2023/02/09 12:00:07;;;;;;;14.50;10.30;;;4.80;99.90;;;;;;5072837;28;20468;-59
2023/02/09 12:02:50;;;;;;;15.57;10.47;;;4.80;99.90;;;;;;5092382;28;20467;-58
2023/02/09 12:05:20;;;;;;;13.47;9.43;;;4.70;99.90;;;;;;5092858;28;21012;-58
2023/02/09 12:08:13;;;;;;;13.43;9.83;;;4.90;99.90;;;;;;5093057;28;20456;-58
2023/02/09 12:10:47;;;;;;;14.97;9.90;;;5.10;99.90;;;;;;5092927;28;20963;-58
2023/02/09 12:13:26;;;;;;;16.57;10.70;;;5.00;99.90;;;;;;5101975;28;21077;-58
2023/02/09 12:15:57;;;;;;;14.60;10.07;;;5.00;99.90;;;;;;5099657;28;20806;-58
2023/02/09 12:18:29;;;;;;;15.53;11.00;;;5.00;99.90;;;;;;5100971;28;21168;-58
2023/02/09 12:20:58;;;;;;;15.67;10.80;;;5.00;99.90;;;;;;5103930;28;20811;-58
2023/02/09 12:23:31;;;;;;;16.93;10.73;;;5.00;99.90;;;;;;5112874;28;20467;-59
2023/02/09 12:26:00;;;;;;;15.07;9.77;;;4.90;99.90;;;;;;5105224;28;20468;-58
2023/02/09 12:28:41;;;;;;;14.73;10.33;;;4.80;99.90;;;;;;5105217;28;20478;-59
2023/02/09 12:31:26;;;;;;;13.33;9.57;;;4.80;99.90;;;;;;5099040;28;20499;-58
2023/02/09 12:34:14;;;;;;;13.33;9.73;;;4.80;99.90;;;;;;5103313;28;20463;-58
2023/02/09 12:37:09;;;;;;;14.17;10.40;;;4.80;99.90;;;;;;5101518;28;20464;-58
2023/02/09 12:39:37;;;;;;;14.33;9.97;;;4.70;99.90;;;;;;5096608;28;20447;-59
2023/02/09 12:42:28;;;;;;;15.37;9.83;;;4.80;99.90;;;;;;5099651;28;20468;-58
2023/02/09 12:44:59;;;;;;;15.73;9.93;;;4.70;99.90;;;;;;5100731;28;20470;-58
2023/02/09 12:47:41;;;;;;;14.03;10.40;;;4.60;99.90;;;;;;5096345;28;20997;-58
2023/02/09 12:50:35;;;;;;;15.23;10.37;;;4.60;99.90;;;;;;5088094;28;20472;-59
2023/02/09 12:53:33;;;;;;;16.63;10.13;;;4.60;99.90;;;;;;5089162;28;20990;-59
2023/02/09 12:56:04;;;;;;;18.03;11.07;;;4.50;99.90;;;;;;5076230;28;20471;-59
2023/02/09 12:58:53;;;;;;;15.43;10.53;;;4.50;99.90;;;;;;5075759;28;20496;-58
2023/02/09 13:01:21;;;;;;;15.03;9.47;;;4.60;99.90;;;;;;5075136;28;20998;-59
2023/02/09 13:03:56;;;;;;;16.17;10.00;;;4.50;99.90;;;;;;5110469;28;20859;-58
2023/02/09 13:06:32;;;;;;;16.03;10.70;;;4.50;99.90;;;;;;5116877;28;20827;-58
2023/02/09 13:09:07;;;;;;;16.43;10.90;;;4.50;99.90;;;;;;5116551;28;20463;-58
2023/02/09 13:11:48;;;;;;;15.13;10.97;;;4.50;99.90;;;;;;5116488;28;20991;-59
2023/02/09 13:14:17;;;;;;;16.03;10.67;;;4.50;99.90;;;;;;5103148;28;20464;-59